sensor_id;sensor_type;location;lat;lon;timestamp;pressure;altitude;pressure_sealevel;temperature;humidity
19286;BME280;9776;50.798;6.430;2022-10-16T00:01:14;99781.38;;;14.78;76.15
19286;BME280;9776;50.798;6.430;2022-10-16T00:03:42;99781.38;;;14.78;76.04
19286;BME280;9776;50.798;6.430;2022-10-16T00:06:10;99782.00;;;14.81;75.60
19286;BME280;9776;50.798;6.430;2022-10-16T00:08:37;99792.63;;;14.81;75.86
19286;BME280;9776;50.798;6.430;2022-10-16T00:11:06;99790.19;;;14.79;75.58
19286;BME280;9776;50.798;6.430;2022-10-16T00:13:34;99786.44;;;14.73;76.02
19286;BME280;9776;50.798;6.430;2022-10-16T00:16:04;99787.91;;;14.76;75.97
19286;BME280;9776;50.798;6.430;2022-10-16T00:18:31;99774.81;;;14.74;75.66
19286;BME280;9776;50.798;6.430;2022-10-16T00:21:02;99774.41;;;14.77;75.59
19286;BME280;9776;50.798;6.430;2022-10-16T00:23:29;99769.94;;;14.78;75.22
19286;BME280;9776;50.798;6.430;2022-10-16T00:25:56;99755.19;;;14.75;75.51
19286;BME280;9776;50.798;6.430;2022-10-16T00:28:23;99765.19;;;14.73;75.41
19286;BME280;9776;50.798;6.430;2022-10-16T00:30:51;99766.56;;;14.69;75.29
19286;BME280;9776;50.798;6.430;2022-10-16T00:33:19;99757.78;;;14.69;75.34
19286;BME280;9776;50.798;6.430;2022-10-16T00:35:46;99762.84;;;14.64;75.51
19286;BME280;9776;50.798;6.430;2022-10-16T00:38:12;99757.75;;;14.62;75.35
19286;BME280;9776;50.798;6.430;2022-10-16T00:40:39;99756.09;;;14.61;75.06
19286;BME280;9776;50.798;6.430;2022-10-16T00:43:31;99763.06;;;14.62;75.07
19286;BME280;9776;50.798;6.430;2022-10-16T00:45:59;99752.16;;;14.57;74.99
19286;BME280;9776;50.798;6.430;2022-10-16T00:48:27;99761.16;;;14.56;74.94
19286;BME280;9776;50.798;6.430;2022-10-16T00:50:54;99767.66;;;14.54;74.80
19286;BME280;9776;50.798;6.430;2022-10-16T00:53:23;99771.94;;;14.55;74.66
19286;BME280;9776;50.798;6.430;2022-10-16T00:55:51;99767.22;;;14.50;74.79
19286;BME280;9776;50.798;6.430;2022-10-16T00:58:17;99759.81;;;14.46;74.70
19286;BME280;9776;50.798;6.430;2022-10-16T01:00:44;99762.03;;;14.42;75.15
19286;BME280;9776;50.798;6.430;2022-10-16T01:03:24;99770.53;;;14.38;75.06
19286;BME280;9776;50.798;6.430;2022-10-16T01:06:01;99774.00;;;14.38;74.74
19286;BME280;9776;50.798;6.430;2022-10-16T01:08:39;99767.63;;;14.33;74.81
19286;BME280;9776;50.798;6.430;2022-10-16T01:11:14;99777.59;;;14.31;75.18
19286;BME280;9776;50.798;6.430;2022-10-16T01:13:45;99789.19;;;14.30;75.22
19286;BME280;9776;50.798;6.430;2022-10-16T01:16:17;99792.06;;;14.28;74.96
19286;BME280;9776;50.798;6.430;2022-10-16T01:18:51;99779.16;;;14.25;74.88
19286;BME280;9776;50.798;6.430;2022-10-16T01:21:23;99768.53;;;14.25;74.99
19286;BME280;9776;50.798;6.430;2022-10-16T01:23:59;99771.34;;;14.23;75.17
19286;BME280;9776;50.798;6.430;2022-10-16T01:26:37;99790.13;;;14.22;74.94
19286;BME280;9776;50.798;6.430;2022-10-16T01:29:15;99790.31;;;14.20;75.20
19286;BME280;9776;50.798;6.430;2022-10-16T01:31:47;99795.16;;;14.17;75.00
19286;BME280;9776;50.798;6.430;2022-10-16T01:34:19;99795.81;;;14.19;74.93
19286;BME280;9776;50.798;6.430;2022-10-16T01:36:51;99795.44;;;14.22;74.72
19286;BME280;9776;50.798;6.430;2022-10-16T01:39:22;99798.72;;;14.24;74.75
19286;BME280;9776;50.798;6.430;2022-10-16T01:41:54;99794.88;;;14.27;74.55
19286;BME280;9776;50.798;6.430;2022-10-16T01:44:24;99811.00;;;14.25;74.89
19286;BME280;9776;50.798;6.430;2022-10-16T01:46:53;99809.97;;;14.26;74.59
19286;BME280;9776;50.798;6.430;2022-10-16T01:49:21;99796.34;;;14.29;74.72
19286;BME280;9776;50.798;6.430;2022-10-16T01:51:52;99801.63;;;14.29;74.50
19286;BME280;9776;50.798;6.430;2022-10-16T01:54:21;99806.44;;;14.34;74.57
19286;BME280;9776;50.798;6.430;2022-10-16T01:56:50;99810.25;;;14.31;74.50
19286;BME280;9776;50.798;6.430;2022-10-16T01:59:20;99818.53;;;14.36;74.59
19286;BME280;9776;50.798;6.430;2022-10-16T02:01:51;99809.97;;;14.26;75.00
19286;BME280;9776;50.798;6.430;2022-10-16T02:04:22;99807.53;;;14.25;75.03
19286;BME280;9776;50.798;6.430;2022-10-16T02:06:50;99806.53;;;14.26;74.89
19286;BME280;9776;50.798;6.430;2022-10-16T02:09:18;99799.00;;;14.29;74.79
19286;BME280;9776;50.798;6.430;2022-10-16T02:11:45;99798.66;;;14.32;74.82
19286;BME280;9776;50.798;6.430;2022-10-16T02:14:12;99794.16;;;14.33;74.53
19286;BME280;9776;50.798;6.430;2022-10-16T02:16:40;99808.28;;;14.33;74.58
19286;BME280;9776;50.798;6.430;2022-10-16T02:19:09;99801.38;;;14.24;74.80
19286;BME280;9776;50.798;6.430;2022-10-16T02:21:40;99813.75;;;14.17;75.11
19286;BME280;9776;50.798;6.430;2022-10-16T02:24:11;99809.44;;;14.16;74.95
19286;BME280;9776;50.798;6.430;2022-10-16T02:26:49;99812.28;;;14.14;74.78
19286;BME280;9776;50.798;6.430;2022-10-16T02:29:23;99813.47;;;14.12;74.94
19286;BME280;9776;50.798;6.430;2022-10-16T02:31:55;99809.81;;;14.13;75.06
19286;BME280;9776;50.798;6.430;2022-10-16T02:34:25;99809.81;;;14.13;74.98
19286;BME280;9776;50.798;6.430;2022-10-16T02:36:54;99824.09;;;14.12;74.92
19286;BME280;9776;50.798;6.430;2022-10-16T02:39:21;99819.81;;;14.11;74.84
19286;BME280;9776;50.798;6.430;2022-10-16T02:41:48;99819.44;;;14.14;74.80
19286;BME280;9776;50.798;6.430;2022-10-16T02:44:15;99830.84;;;14.14;74.78
19286;BME280;9776;50.798;6.430;2022-10-16T02:46:42;99827.41;;;14.14;74.59
19286;BME280;9776;50.798;6.430;2022-10-16T02:49:08;99827.41;;;14.14;74.63
19286;BME280;9776;50.798;6.430;2022-10-16T02:51:36;99827.41;;;14.14;74.25
19286;BME280;9776;50.798;6.430;2022-10-16T02:54:03;99814.94;;;14.14;74.15
19286;BME280;9776;50.798;6.430;2022-10-16T02:56:30;99809.44;;;14.16;74.22
19286;BME280;9776;50.798;6.430;2022-10-16T02:58:56;99804.16;;;14.16;74.39
19286;BME280;9776;50.798;6.430;2022-10-16T03:01:23;99798.47;;;14.19;74.08
19286;BME280;9776;50.798;6.430;2022-10-16T03:03:50;99790.88;;;14.16;74.14
19286;BME280;9776;50.798;6.430;2022-10-16T03:06:16;99795.00;;;14.18;74.20
19286;BME280;9776;50.798;6.430;2022-10-16T03:08:44;99793.34;;;14.17;73.96
19286;BME280;9776;50.798;6.430;2022-10-16T03:11:11;99790.88;;;14.16;74.30
19286;BME280;9776;50.798;6.430;2022-10-16T03:13:37;99803.13;;;14.17;74.20
19286;BME280;9776;50.798;6.430;2022-10-16T03:16:04;99804.78;;;14.18;74.20
19286;BME280;9776;50.798;6.430;2022-10-16T03:18:31;99802.75;;;14.20;74.20
19286;BME280;9776;50.798;6.430;2022-10-16T03:20:57;99800.38;;;14.25;73.78
19286;BME280;9776;50.798;6.430;2022-10-16T03:23:24;99797.38;;;14.28;74.13
19286;BME280;9776;50.798;6.430;2022-10-16T03:25:52;99805.97;;;14.30;73.88
19286;BME280;9776;50.798;6.430;2022-10-16T03:28:19;99794.00;;;14.34;73.77
19286;BME280;9776;50.798;6.430;2022-10-16T03:30:45;99791.97;;;14.36;73.59
19286;BME280;9776;50.798;6.430;2022-10-16T03:33:12;99804.03;;;14.39;73.89
19286;BME280;9776;50.798;6.430;2022-10-16T03:35:39;99807.53;;;14.39;73.82
19286;BME280;9776;50.798;6.430;2022-10-16T03:38:05;99809.16;;;14.40;73.64
19286;BME280;9776;50.798;6.430;2022-10-16T03:40:32;99824.72;;;14.43;73.75
19286;BME280;9776;50.798;6.430;2022-10-16T03:43:00;99837.81;;;14.45;73.87
19286;BME280;9776;50.798;6.430;2022-10-16T03:45:26;99852.28;;;14.42;73.57
19286;BME280;9776;50.798;6.430;2022-10-16T03:47:53;99848.34;;;14.38;73.94
19286;BME280;9776;50.798;6.430;2022-10-16T03:50:20;99845.31;;;14.41;73.84
19286;BME280;9776;50.798;6.430;2022-10-16T03:52:46;99836.53;;;14.41;73.87
19286;BME280;9776;50.798;6.430;2022-10-16T03:55:13;99839.66;;;14.44;74.10
19286;BME280;9776;50.798;6.430;2022-10-16T03:57:39;99829.22;;;14.43;73.87
19286;BME280;9776;50.798;6.430;2022-10-16T04:00:09;99833.25;;;14.39;73.89
19286;BME280;9776;50.798;6.430;2022-10-16T04:02:36;99839.13;;;14.34;73.94
19286;BME280;9776;50.798;6.430;2022-10-16T04:05:03;99847.44;;;14.31;74.22
19286;BME280;9776;50.798;6.430;2022-10-16T04:07:29;99837.56;;;14.25;74.15
19286;BME280;9776;50.798;6.430;2022-10-16T04:09:56;99841.19;;;14.24;74.35
19286;BME280;9776;50.798;6.430;2022-10-16T04:12:24;99836.63;;;14.18;74.40
19286;BME280;9776;50.798;6.430;2022-10-16T04:14:50;99836.00;;;14.16;74.74
19286;BME280;9776;50.798;6.430;2022-10-16T04:17:18;99837.00;;;14.15;74.47
19286;BME280;9776;50.798;6.430;2022-10-16T04:19:45;99844.31;;;14.13;74.62
19286;BME280;9776;50.798;6.430;2022-10-16T04:22:11;99843.03;;;14.09;74.72
19286;BME280;9776;50.798;6.430;2022-10-16T04:24:38;99835.72;;;14.11;74.47
19286;BME280;9776;50.798;6.430;2022-10-16T04:27:05;99835.91;;;14.09;74.55
19286;BME280;9776;50.798;6.430;2022-10-16T04:29:31;99836.28;;;14.06;74.83
19286;BME280;9776;50.798;6.430;2022-10-16T04:31:58;99842.13;;;14.02;74.68
19286;BME280;9776;50.798;6.430;2022-10-16T04:34:26;99843.34;;;13.99;74.90
19286;BME280;9776;50.798;6.430;2022-10-16T04:36:52;99849.38;;;13.93;74.78
19286;BME280;9776;50.798;6.430;2022-10-16T04:39:19;99863.16;;;13.89;74.87
19286;BME280;9776;50.798;6.430;2022-10-16T04:41:46;99867.19;;;13.85;74.96
19286;BME280;9776;50.798;6.430;2022-10-16T04:44:12;99866.53;;;13.83;75.16
19286;BME280;9776;50.798;6.430;2022-10-16T04:46:39;99870.84;;;13.84;75.25
19286;BME280;9776;50.798;6.430;2022-10-16T04:49:06;99865.91;;;13.81;75.34
19286;BME280;9776;50.798;6.430;2022-10-16T04:51:34;99878.16;;;13.82;75.07
19286;BME280;9776;50.798;6.430;2022-10-16T04:54:00;99885.47;;;13.80;75.03
19286;BME280;9776;50.798;6.430;2022-10-16T04:56:27;99896.75;;;13.82;74.94
19286;BME280;9776;50.798;6.430;2022-10-16T04:58:53;99887.31;;;13.79;75.15
19286;BME280;9776;50.798;6.430;2022-10-16T05:01:20;99889.13;;;13.79;75.23
19286;BME280;9776;50.798;6.430;2022-10-16T05:03:47;99896.44;;;13.77;75.40
19286;BME280;9776;50.798;6.430;2022-10-16T05:06:13;99900.28;;;13.74;75.32
19286;BME280;9776;50.798;6.430;2022-10-16T05:08:41;99903.00;;;13.66;75.65
19286;BME280;9776;50.798;6.430;2022-10-16T05:11:08;99888.34;;;13.55;75.83
19286;BME280;9776;50.798;6.430;2022-10-16T05:13:34;99893.66;;;13.55;75.76
19286;BME280;9776;50.798;6.430;2022-10-16T05:16:01;99896.31;;;13.55;75.95
19286;BME280;9776;50.798;6.430;2022-10-16T05:18:28;99916.06;;;13.53;75.72
19286;BME280;9776;50.798;6.430;2022-10-16T05:20:54;99913.56;;;13.51;75.87
19286;BME280;9776;50.798;6.430;2022-10-16T05:23:21;99925.19;;;13.50;75.77
19286;BME280;9776;50.798;6.430;2022-10-16T05:25:53;99921.59;;;13.43;75.79
19286;BME280;9776;50.798;6.430;2022-10-16T05:28:21;99913.59;;;13.29;76.18
19286;BME280;9776;50.798;6.430;2022-10-16T05:30:47;99914.16;;;13.16;76.53
19286;BME280;9776;50.798;6.430;2022-10-16T05:33:14;99910.22;;;13.12;76.69
19286;BME280;9776;50.798;6.430;2022-10-16T05:35:41;99909.22;;;13.05;76.84
19286;BME280;9776;50.798;6.430;2022-10-16T05:38:07;99905.94;;;13.03;76.71
19286;BME280;9776;50.798;6.430;2022-10-16T05:40:34;99923.66;;;13.02;76.69
19286;BME280;9776;50.798;6.430;2022-10-16T05:43:02;99926.16;;;12.96;77.06
19286;BME280;9776;50.798;6.430;2022-10-16T05:45:28;99937.44;;;12.98;76.84
19286;BME280;9776;50.798;6.430;2022-10-16T05:47:55;99940.91;;;12.98;76.67
19286;BME280;9776;50.798;6.430;2022-10-16T05:50:22;99948.53;;;13.01;76.83
19286;BME280;9776;50.798;6.430;2022-10-16T05:52:48;99943.72;;;12.97;76.65
19286;BME280;9776;50.798;6.430;2022-10-16T05:55:15;99957.63;;;12.99;76.65
19286;BME280;9776;50.798;6.430;2022-10-16T05:57:41;99971.56;;;12.93;76.63
19286;BME280;9776;50.798;6.430;2022-10-16T06:00:10;99976.84;;;12.93;76.72
19286;BME280;9776;50.798;6.430;2022-10-16T06:02:37;99968.75;;;12.94;76.74
19286;BME280;9776;50.798;6.430;2022-10-16T06:05:04;99988.75;;;12.97;76.77
19286;BME280;9776;50.798;6.430;2022-10-16T06:07:33;99981.44;;;13.07;76.73
19286;BME280;9776;50.798;6.430;2022-10-16T06:10:00;99977.75;;;13.16;76.36
19286;BME280;9776;50.798;6.430;2022-10-16T06:12:27;99969.78;;;13.24;76.46
19286;BME280;9776;50.798;6.430;2022-10-16T06:14:53;99979.50;;;13.32;75.86
19286;BME280;9776;50.798;6.430;2022-10-16T06:17:21;99975.94;;;13.39;75.81
19286;BME280;9776;50.798;6.430;2022-10-16T06:19:48;99989.34;;;13.46;75.65
19286;BME280;9776;50.798;6.430;2022-10-16T06:22:14;99993.13;;;13.51;75.41
19286;BME280;9776;50.798;6.430;2022-10-16T06:24:41;100000.06;;;13.52;75.78
19286;BME280;9776;50.798;6.430;2022-10-16T06:27:08;100001.34;;;13.56;75.38
19286;BME280;9776;50.798;6.430;2022-10-16T06:29:34;99999.72;;;13.55;75.60
19286;BME280;9776;50.798;6.430;2022-10-16T06:32:01;99999.53;;;13.57;75.62
19286;BME280;9776;50.798;6.430;2022-10-16T06:34:29;100006.31;;;13.59;75.45
19286;BME280;9776;50.798;6.430;2022-10-16T06:36:55;100014.63;;;13.56;75.75
19286;BME280;9776;50.798;6.430;2022-10-16T06:39:22;100009.66;;;13.53;76.11
19286;BME280;9776;50.798;6.430;2022-10-16T06:41:49;100017.63;;;13.53;75.86
19286;BME280;9776;50.798;6.430;2022-10-16T06:44:15;100029.41;;;13.51;76.04
19286;BME280;9776;50.798;6.430;2022-10-16T06:46:42;100026.94;;;13.49;76.57
19286;BME280;9776;50.798;6.430;2022-10-16T06:49:09;100029.88;;;13.54;76.52
19286;BME280;9776;50.798;6.430;2022-10-16T06:51:37;100037.69;;;13.56;76.39
19286;BME280;9776;50.798;6.430;2022-10-16T06:54:06;100031.47;;;13.63;76.48
19286;BME280;9776;50.798;6.430;2022-10-16T06:56:33;100024.13;;;13.74;76.49
19286;BME280;9776;50.798;6.430;2022-10-16T06:59:01;100026.19;;;13.86;75.89
19286;BME280;9776;50.798;6.430;2022-10-16T07:01:29;100040.19;;;13.95;76.17
19286;BME280;9776;50.798;6.430;2022-10-16T07:03:56;100039.31;;;14.02;75.96
19286;BME280;9776;50.798;6.430;2022-10-16T07:06:24;100050.88;;;14.09;75.75
19286;BME280;9776;50.798;6.430;2022-10-16T07:08:53;100058.59;;;14.19;75.86
19286;BME280;9776;50.798;6.430;2022-10-16T07:11:22;100068.78;;;14.30;75.38
19286;BME280;9776;50.798;6.430;2022-10-16T07:13:50;100066.06;;;14.38;75.15
19286;BME280;9776;50.798;6.430;2022-10-16T07:16:18;100066.66;;;14.48;75.35
19286;BME280;9776;50.798;6.430;2022-10-16T07:18:46;100076.56;;;14.54;75.08
19286;BME280;9776;50.798;6.430;2022-10-16T07:21:15;100075.38;;;14.57;75.25
19286;BME280;9776;50.798;6.430;2022-10-16T07:23:43;100076.38;;;14.56;75.14
19286;BME280;9776;50.798;6.430;2022-10-16T07:26:11;100084.53;;;14.54;75.33
19286;BME280;9776;50.798;6.430;2022-10-16T07:28:38;100081.56;;;14.49;75.58
19286;BME280;9776;50.798;6.430;2022-10-16T07:31:06;100093.72;;;14.44;75.52
19286;BME280;9776;50.798;6.430;2022-10-16T07:33:36;100102.41;;;14.38;75.71
19286;BME280;9776;50.798;6.430;2022-10-16T07:36:03;100104.94;;;14.31;75.75
19286;BME280;9776;50.798;6.430;2022-10-16T07:38:30;100100.00;;;14.28;75.98
19286;BME280;9776;50.798;6.430;2022-10-16T07:40:57;100107.28;;;14.26;76.35
19286;BME280;9776;50.798;6.430;2022-10-16T07:43:26;100114.81;;;14.23;76.22
19286;BME280;9776;50.798;6.430;2022-10-16T07:45:53;100114.81;;;14.23;76.21
19286;BME280;9776;50.798;6.430;2022-10-16T07:48:21;100119.09;;;14.23;76.24
19286;BME280;9776;50.798;6.430;2022-10-16T07:50:48;100115.59;;;14.23;76.38
19286;BME280;9776;50.798;6.430;2022-10-16T07:53:15;100120.75;;;14.25;76.33
19286;BME280;9776;50.798;6.430;2022-10-16T07:55:41;100124.06;;;14.27;76.75
19286;BME280;9776;50.798;6.430;2022-10-16T07:58:08;100133.16;;;14.32;76.28
19286;BME280;9776;50.798;6.430;2022-10-16T08:00:37;100129.28;;;14.43;76.16
19286;BME280;9776;50.798;6.430;2022-10-16T08:03:04;100134.59;;;14.57;75.95
19286;BME280;9776;50.798;6.430;2022-10-16T08:05:32;100139.03;;;14.65;76.01
19286;BME280;9776;50.798;6.430;2022-10-16T08:07:59;100134.75;;;14.78;75.79
19286;BME280;9776;50.798;6.430;2022-10-16T08:10:27;100142.94;;;14.92;75.25
19286;BME280;9776;50.798;6.430;2022-10-16T08:12:54;100137.78;;;15.05;75.20
19286;BME280;9776;50.798;6.430;2022-10-16T08:15:21;100154.59;;;15.20;74.52
19286;BME280;9776;50.798;6.430;2022-10-16T08:17:56;100147.97;;;15.30;74.44
19286;BME280;9776;50.798;6.430;2022-10-16T08:20:23;100151.34;;;15.39;74.23
19286;BME280;9776;50.798;6.430;2022-10-16T08:22:49;100158.59;;;15.45;73.83
19286;BME280;9776;50.798;6.430;2022-10-16T08:25:16;100161.75;;;15.49;73.85
19286;BME280;9776;50.798;6.430;2022-10-16T08:27:43;100169.84;;;15.55;73.51
19286;BME280;9776;50.798;6.430;2022-10-16T08:30:10;100170.91;;;15.61;73.32
19286;BME280;9776;50.798;6.430;2022-10-16T08:32:37;100173.84;;;15.66;72.78
19286;BME280;9776;50.798;6.430;2022-10-16T08:35:05;100174.94;;;15.71;72.70
19286;BME280;9776;50.798;6.430;2022-10-16T08:37:32;100174.94;;;15.71;72.22
19286;BME280;9776;50.798;6.430;2022-10-16T08:39:59;100170.97;;;15.82;72.38
19286;BME280;9776;50.798;6.430;2022-10-16T08:42:36;100178.66;;;15.92;71.48
19286;BME280;9776;50.798;6.430;2022-10-16T08:45:18;100180.81;;;16.03;71.01
19286;BME280;9776;50.798;6.430;2022-10-16T08:48:00;100192.00;;;16.13;70.57
19286;BME280;9776;50.798;6.430;2022-10-16T08:50:32;100189.47;;;16.26;69.84
19286;BME280;9776;50.798;6.430;2022-10-16T08:52:59;100193.91;;;16.40;69.34
19286;BME280;9776;50.798;6.430;2022-10-16T08:55:32;100197.38;;;16.55;68.49
19286;BME280;9776;50.798;6.430;2022-10-16T08:58:00;100194.19;;;16.66;68.02
19286;BME280;9776;50.798;6.430;2022-10-16T09:00:27;100192.44;;;16.80;67.00
19286;BME280;9776;50.798;6.430;2022-10-16T09:03:03;100199.94;;;17.19;65.71
19286;BME280;9776;50.798;6.430;2022-10-16T09:05:48;100190.16;;;18.14;63.09
19286;BME280;9776;50.798;6.430;2022-10-16T09:08:26;100188.91;;;20.50;57.04
19286;BME280;9776;50.798;6.430;2022-10-16T09:10:57;100201.19;;;22.22;52.74
19286;BME280;9776;50.798;6.430;2022-10-16T09:13:28;100204.34;;;22.90;50.97
19286;BME280;9776;50.798;6.430;2022-10-16T09:16:04;100199.41;;;22.99;50.52
19286;BME280;9776;50.798;6.430;2022-10-16T09:18:41;100196.94;;;23.32;49.73
19286;BME280;9776;50.798;6.430;2022-10-16T09:21:15;100206.94;;;23.08;50.00
19286;BME280;9776;50.798;6.430;2022-10-16T09:23:45;100204.47;;;23.53;49.00
19286;BME280;9776;50.798;6.430;2022-10-16T09:26:14;100200.81;;;24.11;47.59
19286;BME280;9776;50.798;6.430;2022-10-16T09:28:43;100199.53;;;24.30;46.57
19286;BME280;9776;50.798;6.430;2022-10-16T09:31:17;100199.06;;;23.30;48.04
19286;BME280;9776;50.798;6.430;2022-10-16T09:33:47;100208.94;;;22.00;50.66
19286;BME280;9776;50.798;6.430;2022-10-16T09:36:16;100211.38;;;22.02;50.74
19286;BME280;9776;50.798;6.430;2022-10-16T09:38:43;100209.72;;;23.02;48.44
19286;BME280;9776;50.798;6.430;2022-10-16T09:41:16;100202.41;;;23.84;46.13
19286;BME280;9776;50.798;6.430;2022-10-16T09:43:48;100204.13;;;23.90;46.12
19286;BME280;9776;50.798;6.430;2022-10-16T09:46:27;100204.28;;;23.83;45.71
19286;BME280;9776;50.798;6.430;2022-10-16T09:48:56;100200.13;;;23.52;45.99
19286;BME280;9776;50.798;6.430;2022-10-16T09:51:26;100205.25;;;22.84;47.10
19286;BME280;9776;50.798;6.430;2022-10-16T09:53:58;100188.44;;;22.18;47.94
19286;BME280;9776;50.798;6.430;2022-10-16T09:56:27;100194.34;;;22.08;48.12
19286;BME280;9776;50.798;6.430;2022-10-16T09:58:56;100196.91;;;22.33;47.31
19286;BME280;9776;50.798;6.430;2022-10-16T10:01:28;100197.25;;;22.66;46.18
19286;BME280;9776;50.798;6.430;2022-10-16T10:03:57;100200.94;;;23.18;45.12
19286;BME280;9776;50.798;6.430;2022-10-16T10:06:29;100190.16;;;23.93;43.43
19286;BME280;9776;50.798;6.430;2022-10-16T10:09:04;100181.50;;;24.92;41.39
19286;BME280;9776;50.798;6.430;2022-10-16T10:11:42;100179.25;;;25.06;41.43
19286;BME280;9776;50.798;6.430;2022-10-16T10:14:18;100182.44;;;24.69;41.64
19286;BME280;9776;50.798;6.430;2022-10-16T10:16:47;100189.44;;;24.37;42.75
19286;BME280;9776;50.798;6.430;2022-10-16T10:19:15;100193.13;;;23.91;43.19
19286;BME280;9776;50.798;6.430;2022-10-16T10:21:44;100198.97;;;23.25;43.93
19286;BME280;9776;50.798;6.430;2022-10-16T10:24:12;100207.63;;;23.15;43.94
19286;BME280;9776;50.798;6.430;2022-10-16T10:26:47;100203.28;;;23.14;43.64
19286;BME280;9776;50.798;6.430;2022-10-16T10:29:24;100196.84;;;23.50;42.63
19286;BME280;9776;50.798;6.430;2022-10-16T10:31:58;100199.81;;;23.89;42.14
19286;BME280;9776;50.798;6.430;2022-10-16T10:34:42;100198.69;;;24.13;41.45
19286;BME280;9776;50.798;6.430;2022-10-16T10:37:26;100193.81;;;24.55;40.62
19286;BME280;9776;50.798;6.430;2022-10-16T10:40:05;100186.19;;;24.68;40.18
19286;BME280;9776;50.798;6.430;2022-10-16T10:42:40;100185.56;;;24.61;40.30
19286;BME280;9776;50.798;6.430;2022-10-16T10:45:18;100181.97;;;24.72;40.25
19286;BME280;9776;50.798;6.430;2022-10-16T10:50:49;100194.81;;;24.09;41.59
19286;BME280;9776;50.798;6.430;2022-10-16T10:53:33;100191.19;;;23.75;41.95
19286;BME280;9776;50.798;6.430;2022-10-16T10:56:13;100195.88;;;23.68;42.16
19286;BME280;9776;50.798;6.430;2022-10-16T10:58:58;100205.16;;;23.37;42.86
19286;BME280;9776;50.798;6.430;2022-10-16T11:01:33;100194.88;;;23.11;43.16
19286;BME280;9776;50.798;6.430;2022-10-16T11:04:20;100201.28;;;23.33;42.75
19286;BME280;9776;50.798;6.430;2022-10-16T11:06:56;100202.84;;;24.32;40.99
19286;BME280;9776;50.798;6.430;2022-10-16T11:09:28;100200.47;;;24.80;40.16
19286;BME280;9776;50.798;6.430;2022-10-16T11:12:01;100200.22;;;25.37;38.97
19286;BME280;9776;50.798;6.430;2022-10-16T11:14:34;100209.16;;;25.37;39.36
19286;BME280;9776;50.798;6.430;2022-10-16T11:17:07;100216.25;;;25.60;38.40
19286;BME280;9776;50.798;6.430;2022-10-16T11:19:37;100220.63;;;25.45;38.80
19286;BME280;9776;50.798;6.430;2022-10-16T11:22:11;100219.59;;;25.12;39.10
19286;BME280;9776;50.798;6.430;2022-10-16T11:24:45;100223.34;;;24.78;39.24
19286;BME280;9776;50.798;6.430;2022-10-16T11:27:17;100221.38;;;24.73;39.41
19286;BME280;9776;50.798;6.430;2022-10-16T11:29:50;100227.53;;;25.02;38.48
19286;BME280;9776;50.798;6.430;2022-10-16T11:32:24;100230.00;;;25.20;38.39
19286;BME280;9776;50.798;6.430;2022-10-16T11:34:57;100217.97;;;25.28;37.90
19286;BME280;9776;50.798;6.430;2022-10-16T11:37:31;100220.13;;;25.64;37.21
19286;BME280;9776;50.798;6.430;2022-10-16T11:40:16;100228.06;;;25.54;37.09
19286;BME280;9776;50.798;6.430;2022-10-16T11:42:49;100223.47;;;25.16;37.97
19286;BME280;9776;50.798;6.430;2022-10-16T11:45:26;100211.66;;;24.72;38.79
19286;BME280;9776;50.798;6.430;2022-10-16T11:48:00;100219.53;;;24.46;39.14
19286;BME280;9776;50.798;6.430;2022-10-16T11:50:33;100216.59;;;24.19;39.66
19286;BME280;9776;50.798;6.430;2022-10-16T11:53:04;100218.34;;;23.85;40.33
19286;BME280;9776;50.798;6.430;2022-10-16T11:55:39;100224.84;;;23.49;41.03
19286;BME280;9776;50.798;6.430;2022-10-16T11:58:12;100218.75;;;23.19;41.46
19286;BME280;9776;50.798;6.430;2022-10-16T12:00:44;100218.84;;;23.12;41.68
19286;BME280;9776;50.798;6.430;2022-10-16T12:03:18;100215.69;;;23.04;41.78
19286;BME280;9776;50.798;6.430;2022-10-16T12:06:01;100206.78;;;23.15;41.82
19286;BME280;9776;50.798;6.430;2022-10-16T12:08:34;100213.47;;;23.59;41.29
19286;BME280;9776;50.798;6.430;2022-10-16T12:11:22;100220.16;;;23.56;41.24
19286;BME280;9776;50.798;6.430;2022-10-16T12:13:49;100224.22;;;23.70;41.46
19286;BME280;9776;50.798;6.430;2022-10-16T12:16:22;100221.06;;;23.73;41.25
19286;BME280;9776;50.798;6.430;2022-10-16T12:19:03;100213.53;;;23.76;41.22
19286;BME280;9776;50.798;6.430;2022-10-16T12:21:36;100212.56;;;23.93;41.13
19286;BME280;9776;50.798;6.430;2022-10-16T12:24:03;100217.16;;;23.81;41.22
19286;BME280;9776;50.798;6.430;2022-10-16T12:26:33;100210.78;;;23.47;41.90
19286;BME280;9776;50.798;6.430;2022-10-16T12:29:13;100216.16;;;23.24;42.38
19286;BME280;9776;50.798;6.430;2022-10-16T12:31:44;100215.94;;;23.14;42.45
19286;BME280;9776;50.798;6.430;2022-10-16T12:34:21;100223.16;;;22.79;42.89
19286;BME280;9776;50.798;6.430;2022-10-16T12:36:50;100219.47;;;22.61;43.32
19286;BME280;9776;50.798;6.430;2022-10-16T12:39:21;100223.34;;;22.66;43.26
19286;BME280;9776;50.798;6.430;2022-10-16T12:42:00;100218.31;;;22.69;43.20
19286;BME280;9776;50.798;6.430;2022-10-16T12:44:32;100223.63;;;22.76;43.32
19286;BME280;9776;50.798;6.430;2022-10-16T12:46:59;100213.34;;;22.54;43.83
19286;BME280;9776;50.798;6.430;2022-10-16T12:49:32;100216.16;;;22.48;43.87
19286;BME280;9776;50.798;6.430;2022-10-16T12:52:02;100221.16;;;22.44;44.00
19286;BME280;9776;50.798;6.430;2022-10-16T12:54:30;100214.25;;;22.48;43.89
19286;BME280;9776;50.798;6.430;2022-10-16T12:57:21;100200.94;;;22.42;44.06
19286;BME280;9776;50.798;6.430;2022-10-16T12:59:58;100205.63;;;22.58;43.91
19286;BME280;9776;50.798;6.430;2022-10-16T13:02:49;100208.13;;;22.59;43.94
19286;BME280;9776;50.798;6.430;2022-10-16T13:05:27;100207.69;;;22.86;43.61
19286;BME280;9776;50.798;6.430;2022-10-16T13:08:10;100210.88;;;23.17;42.84
19286;BME280;9776;50.798;6.430;2022-10-16T13:10:53;100217.81;;;23.48;42.29
19286;BME280;9776;50.798;6.430;2022-10-16T13:13:47;100216.09;;;23.94;41.62
19286;BME280;9776;50.798;6.430;2022-10-16T13:16:23;100213.16;;;24.35;40.86
19286;BME280;9776;50.798;6.430;2022-10-16T13:19:03;100201.56;;;24.51;40.69
19286;BME280;9776;50.798;6.430;2022-10-16T13:21:42;100210.69;;;24.50;41.23
19286;BME280;9776;50.798;6.430;2022-10-16T13:24:21;100218.25;;;24.65;41.13